Terminal Aerodrome Forecast
Issued by NWS

Home | Current Version | Previous Version | Text Only | Print | Product List | Glossary On
Versions: 1 2 3 4 5 6 7 8 9 10 11 12 13 14
152
FTUS43 KAPX 211732
TAFPLN
TAF
KPLN 211732Z 2118/2218 19011G19KT P6SM BKN120
     FM220200 18010KT P6SM FEW110 WS020/20040KT
     FM221400 18009KT P6SM BKN070=

USA.gov is the U.S. government's official web portal to all federal, state and local government web resources and services.